Time;durP1;ratioP1;P1;durP2;ratioP2;P2;SDS_P1;SDS_P2;PMS_P1;PMS_P2;Temp;Humidity;BMP_temperature;BMP_pressure;BME280_temperature;BME280_humidity;BME280_pressure;Samples;Min_cycle;Max_cycle;Signal;HPM_P1;HPM_P2
2023/08/11 00:02:25;;;;;;;13.77;7.97;;;16.30;99.90;;;;;;5063291;28;20451;-69
2023/08/11 00:04:51;;;;;;;9.65;7.22;;;16.30;99.90;;;;;;5046196;28;20053;-70
2023/08/11 00:07:16;;;;;;;8.68;6.93;;;16.30;99.90;;;;;;5062367;28;20044;-69
2023/08/11 00:09:42;;;;;;;9.38;7.53;;;16.30;99.90;;;;;;5065573;28;20036;-70
2023/08/11 00:12:08;;;;;;;11.68;7.57;;;16.20;99.90;;;;;;5061748;28;20503;-70
2023/08/11 00:14:33;;;;;;;8.43;7.53;;;16.20;99.90;;;;;;5064658;28;20041;-70
2023/08/11 00:16:59;;;;;;;10.70;7.70;;;16.30;99.90;;;;;;5063635;28;20051;-70
2023/08/11 00:19:25;;;;;;;9.38;8.20;;;16.20;99.90;;;;;;5069215;28;20501;-70
2023/08/11 00:21:51;;;;;;;10.38;7.85;;;16.20;99.90;;;;;;5064652;28;20491;-69
2023/08/11 00:24:17;;;;;;;13.98;7.95;;;16.20;99.90;;;;;;5052303;28;20093;-70
2023/08/11 00:26:42;;;;;;;8.95;7.43;;;16.10;99.90;;;;;;5055668;28;20044;-69
2023/08/11 00:29:08;;;;;;;8.98;7.38;;;16.10;99.90;;;;;;5047698;28;20564;-70
2023/08/11 00:31:35;;;;;;;9.32;7.57;;;16.00;99.90;;;;;;5044020;28;20092;-70
2023/08/11 00:34:01;;;;;;;12.48;8.60;;;15.90;99.90;;;;;;5050027;28;20043;-70
2023/08/11 00:36:26;;;;;;;9.07;7.53;;;15.90;99.90;;;;;;5048123;28;20037;-70
2023/08/11 00:38:52;;;;;;;11.45;7.95;;;15.90;99.90;;;;;;5070925;28;20052;-70
2023/08/11 00:41:18;;;;;;;11.82;7.97;;;15.90;99.90;;;;;;5049941;28;20412;-70
2023/08/11 00:43:43;;;;;;;9.90;8.23;;;15.90;99.90;;;;;;5066378;28;20063;-70
2023/08/11 00:46:11;;;;;;;10.10;7.28;;;15.80;99.90;;;;;;5058195;28;20075;-69
2023/08/11 00:48:44;;;;;;;12.60;8.45;;;15.80;99.90;;;;;;5072262;28;20049;-69
2023/08/11 00:51:13;;;;;;;11.32;9.02;;;15.80;99.90;;;;;;5067092;28;20082;-69
2023/08/11 00:53:40;;;;;;;11.70;8.00;;;15.80;99.90;;;;;;5063558;28;20078;-69
2023/08/11 00:56:07;;;;;;;13.25;8.60;;;15.70;99.90;;;;;;5048435;28;20090;-69
2023/08/11 00:58:34;;;;;;;13.10;9.10;;;15.80;99.90;;;;;;5063714;28;20554;-69
2023/08/11 01:01:00;;;;;;;10.63;8.60;;;15.70;99.90;;;;;;5065529;28;20041;-70
2023/08/11 01:03:26;;;;;;;14.90;10.32;;;15.80;99.90;;;;;;5047422;28;20103;-71
2023/08/11 01:06:32;;;;;;;12.93;10.00;;;15.80;99.90;;;;;;5063542;28;20502;-71
2023/08/11 01:09:25;;;;;;;14.02;9.98;;;15.80;99.90;;;;;;5062832;28;20118;-71
2023/08/11 01:12:19;;;;;;;14.35;10.48;;;15.80;99.90;;;;;;5070415;28;20066;-71
2023/08/11 01:15:07;;;;;;;14.48;11.32;;;15.80;99.90;;;;;;5064582;28;20048;-70
2023/08/11 01:17:35;;;;;;;13.57;10.13;;;15.70;99.90;;;;;;5062969;28;20511;-71
2023/08/11 01:20:08;;;;;;;13.35;11.35;;;15.80;99.90;;;;;;5066965;28;20040;-71
2023/08/11 01:22:37;;;;;;;16.13;11.73;;;15.70;99.90;;;;;;5032718;28;20049;-71
2023/08/11 01:25:03;;;;;;;14.70;10.80;;;15.70;99.90;;;;;;5046151;28;20534;-71
2023/08/11 01:27:29;;;;;;;16.73;10.40;;;15.70;99.90;;;;;;5046319;28;20126;-71
2023/08/11 01:29:55;;;;;;;13.98;10.65;;;15.70;99.90;;;;;;5031907;28;20045;-71
2023/08/11 01:32:20;;;;;;;17.83;11.77;;;15.70;99.90;;;;;;5045274;28;20032;-71
2023/08/11 01:34:46;;;;;;;14.48;11.48;;;15.60;99.90;;;;;;5047627;28;20044;-71
2023/08/11 01:37:12;;;;;;;13.73;11.93;;;15.70;99.90;;;;;;5042498;28;20044;-71
2023/08/11 01:39:38;;;;;;;13.75;11.40;;;15.70;99.90;;;;;;5067710;28;20044;-71
2023/08/11 01:42:05;;;;;;;17.73;12.80;;;15.60;99.90;;;;;;5047694;28;20047;-71
2023/08/11 01:44:32;;;;;;;14.73;11.93;;;15.60;99.90;;;;;;5030654;28;20556;-71
2023/08/11 01:46:58;;;;;;;17.90;13.75;;;15.50;99.90;;;;;;5067066;28;20055;-71
2023/08/11 01:49:26;;;;;;;17.90;14.23;;;15.60;99.90;;;;;;5066076;28;20170;-71
2023/08/11 01:51:53;;;;;;;15.82;13.52;;;15.60;99.90;;;;;;5069807;28;20045;-70
2023/08/11 01:54:19;;;;;;;18.80;14.15;;;15.60;99.90;;;;;;5045546;28;20502;-71
2023/08/11 01:56:46;;;;;;;16.30;13.55;;;15.60;99.90;;;;;;5063954;28;20032;-71
2023/08/11 01:59:14;;;;;;;17.75;14.10;;;15.50;99.90;;;;;;5069912;28;20044;-71
2023/08/11 02:01:41;;;;;;;20.45;14.38;;;15.50;99.90;;;;;;5067845;28;20045;-71
2023/08/11 02:04:08;;;;;;;17.02;13.80;;;15.50;99.90;;;;;;5051102;28;20068;-71
2023/08/11 02:06:36;;;;;;;18.55;14.15;;;15.50;99.90;;;;;;5049235;28;20649;-71
2023/08/11 02:09:04;;;;;;;18.90;14.50;;;15.50;99.90;;;;;;5048401;28;20107;-71
2023/08/11 02:11:30;;;;;;;18.20;15.07;;;15.40;99.90;;;;;;5046091;28;20074;-71
2023/08/11 02:13:55;;;;;;;17.58;13.88;;;15.40;99.90;;;;;;5065937;28;20036;-70
2023/08/11 02:16:21;;;;;;;22.33;14.63;;;15.40;99.90;;;;;;5066831;28;20423;-71
2023/08/11 02:18:47;;;;;;;16.50;13.98;;;15.40;99.90;;;;;;5046092;28;20756;-71
2023/08/11 02:21:12;;;;;;;16.65;14.82;;;15.30;99.90;;;;;;5048627;28;20123;-72
2023/08/11 02:23:38;;;;;;;20.95;16.20;;;15.30;99.90;;;;;;5047106;28;20037;-71
2023/08/11 02:26:05;;;;;;;20.08;16.48;;;15.30;99.90;;;;;;5043071;28;20127;-71
2023/08/11 02:28:31;;;;;;;18.60;15.50;;;15.20;99.90;;;;;;5060377;28;20515;-70
2023/08/11 02:30:57;;;;;;;20.40;15.70;;;15.20;99.90;;;;;;5065099;28;20044;-71
2023/08/11 02:33:22;;;;;;;21.23;15.18;;;15.10;99.90;;;;;;5066512;28;20035;-71
2023/08/11 02:35:48;;;;;;;21.13;15.75;;;15.10;99.90;;;;;;5047349;28;20076;-71
2023/08/11 02:38:14;;;;;;;18.50;16.45;;;15.10;99.90;;;;;;5074266;28;20040;-71
2023/08/11 02:40:39;;;;;;;18.55;15.65;;;15.10;99.90;;;;;;5055342;28;20064;-71
2023/08/11 02:43:07;;;;;;;23.00;16.77;;;15.10;99.90;;;;;;5060119;28;20279;-71
2023/08/11 02:45:32;;;;;;;21.17;15.73;;;15.10;99.90;;;;;;5072466;28;20055;-71
2023/08/11 02:47:58;;;;;;;19.15;16.70;;;15.00;99.90;;;;;;5066961;28;20024;-71
2023/08/11 02:50:24;;;;;;;21.17;16.83;;;15.00;99.90;;;;;;5047798;28;20559;-71
2023/08/11 02:52:49;;;;;;;23.50;17.25;;;15.10;99.90;;;;;;5044067;28;20131;-71
2023/08/11 02:55:15;;;;;;;21.05;17.95;;;15.10;99.90;;;;;;5044829;28;20056;-71
2023/08/11 02:57:41;;;;;;;22.85;18.25;;;15.10;99.90;;;;;;5061792;28;20041;-71
2023/08/11 03:00:13;;;;;;;25.70;19.50;;;15.10;99.90;;;;;;5060625;28;20656;-71
2023/08/11 03:02:40;;;;;;;22.87;18.03;;;15.10;99.90;;;;;;5059065;28;20037;-70
2023/08/11 03:05:07;;;;;;;25.13;18.17;;;15.10;99.90;;;;;;5066197;28;20060;-70
2023/08/11 03:07:36;;;;;;;22.02;19.05;;;15.10;99.90;;;;;;5073400;28;20036;-70
2023/08/11 03:10:03;;;;;;;24.00;19.90;;;15.10;99.90;;;;;;5048737;28;20329;-70
2023/08/11 03:12:28;;;;;;;20.95;18.58;;;15.10;99.90;;;;;;5046806;28;20090;-70
2023/08/11 03:14:54;;;;;;;22.02;18.35;;;15.10;99.90;;;;;;5043702;28;20048;-71
2023/08/11 03:17:20;;;;;;;21.48;18.08;;;15.10;99.90;;;;;;5061586;28;20101;-70
2023/08/11 03:19:46;;;;;;;23.20;19.08;;;15.10;99.90;;;;;;5046992;28;20049;-71
2023/08/11 03:22:13;;;;;;;22.08;19.77;;;15.10;99.90;;;;;;5062961;28;20033;-70
2023/08/11 03:24:39;;;;;;;24.80;18.75;;;15.20;99.90;;;;;;5046048;28;20080;-70
2023/08/11 03:27:06;;;;;;;24.23;19.23;;;15.10;99.90;;;;;;5060601;28;20536;-70
2023/08/11 03:29:32;;;;;;;21.15;18.27;;;15.10;99.90;;;;;;5068117;28;20044;-70
2023/08/11 03:31:57;;;;;;;20.95;18.63;;;15.10;99.90;;;;;;5061059;28;20059;-71
2023/08/11 03:34:23;;;;;;;23.05;17.92;;;15.10;99.90;;;;;;5045922;28;20041;-70
2023/08/11 03:36:48;;;;;;;20.38;17.27;;;15.10;99.90;;;;;;5062443;28;20032;-70
2023/08/11 03:39:15;;;;;;;22.42;18.63;;;15.10;99.90;;;;;;5063090;28;20051;-71
2023/08/11 03:41:40;;;;;;;20.80;18.60;;;15.20;99.90;;;;;;5060752;28;20064;-70
2023/08/11 03:44:06;;;;;;;24.50;19.08;;;15.10;99.90;;;;;;5066870;28;20037;-71
2023/08/11 03:46:32;;;;;;;22.25;18.17;;;15.10;99.90;;;;;;5065237;28;20047;-71
2023/08/11 03:48:57;;;;;;;22.80;16.52;;;15.10;99.90;;;;;;5067202;28;20039;-71
2023/08/11 03:51:23;;;;;;;18.20;16.35;;;15.10;99.90;;;;;;5067110;28;20053;-71
2023/08/11 03:53:49;;;;;;;21.48;17.48;;;15.20;99.90;;;;;;5067713;28;20051;-70
2023/08/11 03:56:14;;;;;;;18.80;16.45;;;15.20;99.90;;;;;;5064503;28;20446;-70
2023/08/11 03:58:40;;;;;;;24.05;17.52;;;15.20;99.90;;;;;;5069240;28;20068;-70
2023/08/11 04:01:05;;;;;;;19.38;17.13;;;15.20;99.90;;;;;;5070926;28;22141;-70
2023/08/11 04:03:31;;;;;;;18.58;15.70;;;15.20;99.90;;;;;;5064202;28;20111;-70
2023/08/11 04:06:01;;;;;;;21.15;16.58;;;15.20;99.90;;;;;;5069909;28;20072;-70
2023/08/11 04:08:27;;;;;;;19.38;17.15;;;15.20;99.90;;;;;;5071971;28;20042;-70
2023/08/11 04:10:55;;;;;;;18.40;16.17;;;15.10;99.90;;;;;;5066686;28;20036;-70
2023/08/11 04:13:21;;;;;;;19.00;16.77;;;15.20;99.90;;;;;;5066790;28;20372;-70
2023/08/11 04:15:50;;;;;;;16.98;15.18;;;15.20;99.90;;;;;;5068202;28;20040;-70
2023/08/11 04:18:15;;;;;;;18.70;15.38;;;15.10;99.90;;;;;;5064848;28;20044;-70
2023/08/11 04:20:41;;;;;;;18.90;15.32;;;15.10;99.90;;;;;;5062224;28;20059;-71
2023/08/11 04:23:07;;;;;;;16.30;14.60;;;15.20;99.90;;;;;;5067485;28;20048;-70
2023/08/11 04:25:33;;;;;;;20.35;15.52;;;15.10;99.90;;;;;;5065556;28;20123;-70
2023/08/11 04:28:00;;;;;;;17.27;15.13;;;15.10;99.90;;;;;;5065771;28;20535;-70
2023/08/11 04:30:26;;;;;;;17.73;14.77;;;15.20;99.90;;;;;;5063737;28;20044;-70
2023/08/11 04:32:52;;;;;;;18.73;15.73;;;15.10;99.90;;;;;;5063950;28;20040;-70
2023/08/11 04:35:18;;;;;;;18.25;14.93;;;15.20;99.90;;;;;;5065129;28;20044;-71
2023/08/11 04:37:44;;;;;;;16.63;13.70;;;15.30;99.90;;;;;;5065356;28;20056;-71
2023/08/11 04:40:11;;;;;;;15.90;14.20;;;15.20;99.90;;;;;;5068722;28;20044;-71
2023/08/11 04:42:43;;;;;;;16.67;14.20;;;15.30;99.90;;;;;;5071031;28;20058;-71
2023/08/11 04:45:09;;;;;;;19.60;14.13;;;15.40;99.90;;;;;;5052652;28;20032;-71
2023/08/11 04:47:35;;;;;;;21.35;14.38;;;15.40;99.90;;;;;;5067421;28;20801;-71
2023/08/11 04:50:01;;;;;;;14.73;13.02;;;15.40;99.90;;;;;;5069469;28;20051;-71
2023/08/11 04:52:27;;;;;;;15.40;13.80;;;15.40;99.90;;;;;;5065752;28;20063;-71
2023/08/11 04:54:53;;;;;;;16.60;13.20;;;15.40;99.90;;;;;;5066258;28;20032;-70
2023/08/11 04:57:18;;;;;;;17.15;14.25;;;15.50;99.90;;;;;;5064254;28;20039;-71
2023/08/11 04:59:45;;;;;;;16.40;13.57;;;15.50;99.90;;;;;;5063185;28;20438;-71
2023/08/11 05:02:12;;;;;;;16.58;12.82;;;15.50;99.90;;;;;;5066966;28;20047;-71
2023/08/11 05:04:38;;;;;;;14.35;12.82;;;15.60;99.90;;;;;;5069509;28;20039;-71
2023/08/11 05:07:06;;;;;;;15.85;12.98;;;15.60;99.90;;;;;;5065878;28;20048;-71
2023/08/11 05:09:32;;;;;;;13.93;12.40;;;15.70;99.90;;;;;;5065905;28;20423;-71
2023/08/11 05:11:57;;;;;;;15.73;12.35;;;15.80;99.90;;;;;;5065395;28;20614;-71
2023/08/11 05:14:23;;;;;;;14.82;12.65;;;15.80;99.90;;;;;;5063806;28;20128;-71
2023/08/11 05:16:49;;;;;;;14.57;12.38;;;15.90;99.90;;;;;;5062217;28;20044;-71
2023/08/11 05:19:15;;;;;;;14.43;12.55;;;16.00;99.90;;;;;;5063748;28;20044;-71
2023/08/11 05:21:40;;;;;;;15.32;11.88;;;16.10;99.90;;;;;;5066944;28;20041;-72
2023/08/11 05:24:07;;;;;;;14.82;11.90;;;16.10;99.90;;;;;;5066375;28;20043;-71
2023/08/11 05:26:33;;;;;;;14.15;11.65;;;16.20;99.90;;;;;;5064296;28;20061;-71
2023/08/11 05:28:58;;;;;;;13.82;11.60;;;16.30;99.90;;;;;;5063121;28;20029;-71
2023/08/11 05:31:24;;;;;;;13.70;12.23;;;16.30;99.90;;;;;;5062170;28;20443;-72
2023/08/11 05:33:52;;;;;;;14.05;12.50;;;16.50;99.90;;;;;;5067792;28;20471;-72
2023/08/11 05:36:18;;;;;;;13.40;11.70;;;16.50;99.90;;;;;;5061655;28;20553;-71
2023/08/11 05:38:44;;;;;;;16.25;11.70;;;16.60;99.90;;;;;;5066859;28;20333;-71
2023/08/11 05:41:10;;;;;;;15.13;12.15;;;16.80;99.90;;;;;;5065049;28;20097;-72
2023/08/11 05:43:36;;;;;;;15.80;11.80;;;16.80;99.90;;;;;;5068413;28;20033;-72
2023/08/11 05:46:03;;;;;;;13.48;11.38;;;16.90;99.90;;;;;;5065645;28;20048;-71
2023/08/11 05:48:29;;;;;;;12.38;11.07;;;17.10;99.90;;;;;;5065553;28;20036;-72
2023/08/11 05:50:54;;;;;;;13.18;11.75;;;17.20;99.90;;;;;;5066126;28;20060;-72
2023/08/11 05:53:20;;;;;;;15.75;11.80;;;17.30;99.90;;;;;;5070041;28;20047;-72
2023/08/11 05:55:46;;;;;;;13.60;11.40;;;17.40;99.90;;;;;;5062945;28;20387;-72
2023/08/11 05:58:11;;;;;;;13.93;11.13;;;17.60;99.90;;;;;;5062677;28;20553;-72
2023/08/11 06:00:37;;;;;;;12.63;11.25;;;17.60;99.90;;;;;;5062221;28;20045;-72
2023/08/11 06:03:03;;;;;;;15.77;12.57;;;17.80;99.90;;;;;;5060118;28;20037;-73
2023/08/11 06:05:29;;;;;;;12.35;11.10;;;17.90;99.90;;;;;;5062042;28;20110;-73
2023/08/11 06:07:54;;;;;;;12.55;11.00;;;18.00;99.90;;;;;;5057497;28;20036;-72
2023/08/11 06:10:20;;;;;;;13.25;11.00;;;18.10;99.90;;;;;;5043386;28;20191;-73
2023/08/11 06:12:46;;;;;;;15.07;11.25;;;18.20;99.90;;;;;;5058849;28;20040;-73
2023/08/11 06:15:12;;;;;;;12.93;10.57;;;18.30;99.90;;;;;;5060679;28;20087;-73
2023/08/11 06:17:38;;;;;;;12.88;11.05;;;18.40;99.90;;;;;;5060405;28;20529;-72
2023/08/11 06:20:05;;;;;;;16.15;12.32;;;18.60;99.90;;;;;;5055939;28;20529;-72
2023/08/11 06:22:31;;;;;;;14.20;10.65;;;18.70;99.90;;;;;;5060673;28;20105;-73
2023/08/11 06:24:57;;;;;;;12.15;10.73;;;18.90;99.90;;;;;;5059332;28;20048;-73
2023/08/11 06:27:22;;;;;;;12.18;10.48;;;19.00;99.90;;;;;;5061109;28;20576;-72
2023/08/11 06:29:48;;;;;;;12.68;10.95;;;19.10;99.90;;;;;;5058345;28;20314;-74
2023/08/11 06:32:14;;;;;;;12.15;10.43;;;19.20;99.90;;;;;;5060000;28;20474;-79
2023/08/11 06:34:39;;;;;;;13.27;10.55;;;19.40;99.90;;;;;;5067298;28;20365;-80
2023/08/11 06:37:05;;;;;;;14.40;10.45;;;19.50;99.90;;;;;;5059638;28;20601;-79
2023/08/11 06:39:31;;;;;;;12.15;10.35;;;19.60;99.90;;;;;;5063334;28;20041;-79
2023/08/11 06:41:56;;;;;;;13.02;10.15;;;19.70;99.90;;;;;;5043185;28;20068;-80
2023/08/11 06:44:22;;;;;;;13.70;10.65;;;19.80;99.90;;;;;;5028947;28;20040;-79
2023/08/11 06:46:48;;;;;;;11.95;10.13;;;19.90;99.90;;;;;;5060201;28;20317;-79
2023/08/11 06:49:14;;;;;;;11.90;9.52;;;20.00;99.90;;;;;;5035629;28;20044;-79
2023/08/11 06:51:40;;;;;;;10.77;9.68;;;20.20;99.90;;;;;;5061178;28;20408;-79
2023/08/11 06:54:05;;;;;;;10.60;9.32;;;20.30;99.90;;;;;;5040713;28;20052;-79
2023/08/11 06:56:31;;;;;;;12.95;9.13;;;20.40;99.90;;;;;;5041183;28;20384;-79
2023/08/11 06:58:58;;;;;;;13.55;9.25;;;20.60;99.90;;;;;;5043436;28;20076;-78
2023/08/11 07:01:26;;;;;;;12.02;9.23;;;20.70;99.90;;;;;;5061187;28;20036;-77
2023/08/11 07:03:51;;;;;;;14.00;8.73;;;20.70;99.90;;;;;;5062192;28;20442;-78
2023/08/11 07:06:17;;;;;;;10.27;8.30;;;20.80;99.90;;;;;;5043466;28;20044;-78
2023/08/11 07:08:43;;;;;;;12.00;9.00;;;20.90;99.90;;;;;;5062006;28;20063;-79
2023/08/11 07:11:08;;;;;;;10.27;8.75;;;21.00;99.90;;;;;;5058403;28;20513;-79
2023/08/11 07:13:34;;;;;;;11.18;8.82;;;21.20;99.90;;;;;;5046053;28;20040;-76
2023/08/11 07:16:00;;;;;;;17.20;9.00;;;21.30;99.90;;;;;;5057913;28;20036;-78
2023/08/11 07:18:27;;;;;;;10.85;8.38;;;21.40;99.90;;;;;;5057694;28;20102;-75
2023/08/11 07:20:52;;;;;;;13.25;8.93;;;21.50;99.90;;;;;;5026575;28;20064;-76
2023/08/11 07:23:18;;;;;;;11.13;8.60;;;21.60;99.90;;;;;;5060561;28;20135;-76
2023/08/11 07:25:44;;;;;;;10.82;7.97;;;21.70;99.90;;;;;;5029292;28;20033;-78
2023/08/11 07:28:10;;;;;;;10.73;8.02;;;21.80;99.90;;;;;;5043912;28;20064;-77
2023/08/11 07:30:38;;;;;;;10.80;8.02;;;21.90;99.90;;;;;;5052826;28;20044;-72
2023/08/11 07:33:04;;;;;;;11.02;7.75;;;22.00;99.90;;;;;;5047906;28;20244;-80
2023/08/11 07:35:30;;;;;;;12.95;8.75;;;22.10;99.90;;;;;;5050341;28;20032;-80
2023/08/11 07:37:56;;;;;;;13.82;8.40;;;22.20;99.90;;;;;;5055928;28;20036;-79
2023/08/11 07:40:22;;;;;;;10.05;7.72;;;22.20;99.90;;;;;;5053748;28;20106;-79
2023/08/11 07:42:48;;;;;;;15.30;8.48;;;22.30;99.90;;;;;;5047120;28;20048;-88
2023/08/11 07:45:14;;;;;;;10.05;7.10;;;22.40;99.90;;;;;;5060100;28;20045;-86
2023/08/11 07:47:39;;;;;;;10.30;8.43;;;22.60;99.90;;;;;;5063842;28;20115;-86
2023/08/11 07:50:06;;;;;;;9.38;8.10;;;22.70;99.90;;;;;;5064052;28;21081;-87
2023/08/11 07:52:32;;;;;;;10.02;7.97;;;22.80;99.90;;;;;;5064109;28;20198;-85
2023/08/11 07:54:58;;;;;;;10.25;7.35;;;23.00;99.90;;;;;;5069351;28;20131;-86
2023/08/11 07:57:23;;;;;;;12.60;7.82;;;23.00;99.90;;;;;;5068603;28;20413;-87
2023/08/11 07:59:49;;;;;;;12.65;8.13;;;23.10;99.90;;;;;;5068610;28;20047;-86
2023/08/11 08:02:15;;;;;;;12.48;7.93;;;23.20;99.90;;;;;;5066989;28;20125;-86
2023/08/11 08:04:42;;;;;;;11.95;7.53;;;23.40;99.90;;;;;;5060265;28;20075;-86
2023/08/11 08:07:08;;;;;;;14.00;7.47;;;23.40;99.90;;;;;;5071089;28;20644;-86
2023/08/11 08:09:34;;;;;;;10.95;7.75;;;23.60;99.90;;;;;;5065745;28;20068;-86
2023/08/11 08:12:01;;;;;;;12.25;8.07;;;23.70;99.90;;;;;;5051583;28;20427;-86
2023/08/11 08:14:28;;;;;;;10.73;7.90;;;23.70;99.90;;;;;;5073436;28;20044;-87
2023/08/11 08:16:53;;;;;;;11.23;7.50;;;23.80;99.90;;;;;;5065876;28;20252;-88
2023/08/11 08:19:20;;;;;;;10.52;7.40;;;23.90;99.90;;;;;;5070675;28;20383;-75
2023/08/11 08:21:47;;;;;;;9.48;6.47;;;24.00;99.90;;;;;;5066488;28;20046;-74
2023/08/11 08:24:14;;;;;;;10.60;6.88;;;24.10;99.90;;;;;;5062064;28;20119;-79
2023/08/11 08:26:40;;;;;;;10.68;6.75;;;24.20;99.90;;;;;;5071332;28;20126;-80
2023/08/11 08:29:06;;;;;;;11.48;6.85;;;24.30;99.90;;;;;;5064937;28;20032;-80
2023/08/11 08:31:33;;;;;;;13.65;6.35;;;24.40;99.90;;;;;;5067779;28;20479;-86
2023/08/11 08:33:59;;;;;;;10.85;6.57;;;24.30;99.90;;;;;;5067318;28;20045;-85
2023/08/11 08:36:25;;;;;;;9.73;6.25;;;24.30;99.90;;;;;;5065013;28;20199;-86
2023/08/11 08:38:51;;;;;;;11.98;6.35;;;24.30;99.90;;;;;;5069212;28;20132;-87
2023/08/11 08:41:27;;;;;;;10.98;5.90;;;24.50;99.90;;;;;;5068620;28;20041;-84
2023/08/11 08:43:54;;;;;;;7.80;5.32;;;24.70;99.90;;;;;;5043842;28;20033;-73
2023/08/11 08:46:21;;;;;;;10.60;6.22;;;24.90;99.90;;;;;;5067523;28;20056;-78
2023/08/11 08:48:56;;;;;;;9.77;5.15;;;25.10;99.90;;;;;;5065714;28;20075;-75
2023/08/11 08:51:22;;;;;;;12.40;5.40;;;25.20;99.90;;;;;;5063742;28;20219;-80
2023/08/11 08:53:48;;;;;;;7.90;5.32;;;25.10;99.90;;;;;;5067623;28;20037;-80
2023/08/11 08:56:14;;;;;;;13.40;5.53;;;25.10;99.90;;;;;;5053129;28;20116;-80
2023/08/11 08:58:41;;;;;;;9.10;5.35;;;25.10;99.90;;;;;;5063020;28;20404;-80
2023/08/11 09:01:09;;;;;;;10.40;5.32;;;25.10;99.90;;;;;;5064009;28;20061;-79
2023/08/11 09:03:36;;;;;;;12.25;5.15;;;25.10;99.90;;;;;;5063695;28;20511;-81
2023/08/11 09:06:05;;;;;;;10.77;5.65;;;25.30;99.90;;;;;;5063471;28;20052;-79
2023/08/11 09:08:37;;;;;;;9.70;5.35;;;25.20;99.90;;;;;;5066202;28;20036;-78
2023/08/11 09:11:04;;;;;;;11.10;5.15;;;25.30;99.90;;;;;;5054301;28;20079;-79
2023/08/11 09:13:31;;;;;;;12.02;4.85;;;25.30;99.90;;;;;;5062824;28;20064;-79
2023/08/11 09:15:57;;;;;;;9.07;5.50;;;25.40;99.90;;;;;;5062824;28;20044;-79
2023/08/11 09:18:23;;;;;;;11.30;5.03;;;25.40;99.90;;;;;;5058934;28;20076;-79
2023/08/11 09:20:49;;;;;;;10.07;5.45;;;25.30;99.90;;;;;;5064736;28;20092;-80
2023/08/11 09:23:18;;;;;;;11.25;5.75;;;25.40;99.90;;;;;;5052425;28;20052;-78
2023/08/11 09:25:49;;;;;;;8.85;5.40;;;25.40;99.90;;;;;;5067832;28;20029;-79
2023/08/11 09:28:15;;;;;;;8.52;4.75;;;25.40;99.90;;;;;;5060243;28;20056;-79
2023/08/11 09:30:41;;;;;;;8.05;5.35;;;25.60;99.90;;;;;;5064693;28;20061;-78
2023/08/11 09:33:07;;;;;;;9.43;4.38;;;25.70;99.90;;;;;;5040560;28;20047;-79
2023/08/11 09:35:34;;;;;;;7.53;5.03;;;25.70;99.90;;;;;;5068403;28;20044;-78
2023/08/11 09:38:00;;;;;;;8.93;4.85;;;25.60;99.90;;;;;;5063933;28;20028;-78
2023/08/11 09:40:26;;;;;;;12.15;5.18;;;25.60;99.90;;;;;;5058005;28;20040;-78
2023/08/11 09:42:56;;;;;;;11.52;4.65;;;25.50;99.90;;;;;;5057252;28;20039;-78
2023/08/11 09:45:22;;;;;;;9.65;4.78;;;25.50;99.90;;;;;;5062206;28;20364;-78
2023/08/11 09:47:48;;;;;;;9.65;4.88;;;25.60;99.90;;;;;;5056385;28;20044;-78
2023/08/11 09:50:14;;;;;;;9.43;4.88;;;25.60;99.90;;;;;;5060781;28;20495;-78
2023/08/11 09:52:41;;;;;;;10.02;4.80;;;25.70;99.90;;;;;;5057603;28;20056;-78
2023/08/11 09:55:09;;;;;;;10.40;5.00;;;25.80;99.90;;;;;;5058978;28;20037;-76
2023/08/11 09:57:37;;;;;;;9.48;5.13;;;25.90;99.90;;;;;;5064151;28;20055;-77
2023/08/11 10:00:11;;;;;;;7.18;4.75;;;25.90;99.90;;;;;;5072692;28;20495;-76
2023/08/11 10:02:39;;;;;;;11.57;4.88;;;26.20;99.90;;;;;;5073464;28;20104;-77
2023/08/11 10:05:08;;;;;;;7.45;4.45;;;26.40;99.90;;;;;;5078517;28;20426;-76
2023/08/11 10:07:39;;;;;;;9.02;4.35;;;26.50;99.90;;;;;;5077305;28;20040;-76
2023/08/11 10:10:13;;;;;;;11.13;4.70;;;26.50;99.90;;;;;;5068223;28;20442;-77
2023/08/11 10:12:45;;;;;;;8.55;4.10;;;26.50;99.90;;;;;;5065373;28;20028;-76
2023/08/11 10:15:11;;;;;;;11.30;3.75;;;26.40;99.90;;;;;;5069328;28;20050;-76
2023/08/11 10:17:38;;;;;;;7.05;4.65;;;26.30;99.90;;;;;;5065175;28;20044;-76
2023/08/11 10:20:06;;;;;;;7.47;4.30;;;26.20;99.90;;;;;;5058265;28;20044;-74
2023/08/11 10:22:32;;;;;;;9.13;4.68;;;26.40;99.90;;;;;;5059439;28;20135;-77
2023/08/11 10:25:01;;;;;;;9.05;4.20;;;26.60;99.90;;;;;;5045602;28;20496;-78
2023/08/11 10:27:28;;;;;;;8.45;3.70;;;26.90;99.90;;;;;;5060137;28;20516;-76
2023/08/11 10:29:55;;;;;;;6.65;3.30;;;26.90;99.90;;;;;;5060758;28;20044;-77
2023/08/11 10:32:23;;;;;;;10.10;3.55;;;27.00;99.90;;;;;;5060845;28;20052;-76
2023/08/11 10:34:50;;;;;;;9.02;3.75;;;26.90;99.90;;;;;;5059072;28;20075;-76
2023/08/11 10:37:27;;;;;;;8.30;3.78;;;27.00;99.90;;;;;;5045892;28;20558;-75
2023/08/11 10:40:07;;;;;;;7.57;3.88;;;27.20;99.90;;;;;;5058815;28;20083;-75
2023/08/11 10:42:41;;;;;;;10.48;3.67;;;27.40;99.90;;;;;;5062040;28;20048;-75
2023/08/11 10:45:12;;;;;;;11.20;4.05;;;27.40;99.90;;;;;;5058016;28;20078;-75
2023/08/11 10:47:58;;;;;;;6.57;3.63;;;27.30;99.90;;;;;;5046813;28;20137;-75
2023/08/11 10:50:26;;;;;;;8.23;4.18;;;27.40;99.90;;;;;;5057724;28;20041;-75
2023/08/11 10:53:20;;;;;;;5.90;3.22;;;27.40;99.90;;;;;;5044358;28;20048;-75
2023/08/11 10:56:02;;;;;;;7.38;4.20;;;27.60;99.90;;;;;;5063531;28;20105;-75
2023/08/11 10:58:32;;;;;;;8.10;3.53;;;27.60;99.90;;;;;;5039026;28;20075;-75
2023/08/11 11:01:02;;;;;;;7.05;3.60;;;27.60;99.90;;;;;;5052633;28;20518;-74
2023/08/11 11:03:28;;;;;;;7.75;3.60;;;27.60;99.90;;;;;;5031630;28;20044;-74
2023/08/11 11:05:53;;;;;;;6.95;3.58;;;27.50;99.90;;;;;;5040010;28;20135;-75
2023/08/11 11:08:20;;;;;;;7.72;3.65;;;27.40;99.90;;;;;;5040385;28;20041;-74
2023/08/11 11:10:47;;;;;;;8.57;3.38;;;27.30;99.90;;;;;;5044757;28;20074;-74
2023/08/11 11:13:13;;;;;;;9.30;3.53;;;27.30;99.90;;;;;;5061350;28;20059;-75
2023/08/11 11:15:40;;;;;;;8.05;3.15;;;27.40;99.90;;;;;;5062108;28;20037;-75
2023/08/11 11:18:06;;;;;;;6.63;3.35;;;27.60;99.90;;;;;;5029340;28;20768;-75
2023/08/11 11:20:33;;;;;;;7.32;3.50;;;27.70;99.90;;;;;;5041730;28;20059;-75
2023/08/11 11:22:58;;;;;;;7.18;3.03;;;27.70;99.90;;;;;;5044040;28;20565;-76
2023/08/11 11:25:24;;;;;;;5.10;3.72;;;27.70;99.90;;;;;;5025471;28;20040;-75
2023/08/11 11:27:50;;;;;;;6.57;3.58;;;27.60;99.90;;;;;;5027450;28;20043;-73
2023/08/11 11:30:18;;;;;;;5.45;3.30;;;27.60;99.90;;;;;;5043710;28;20052;-73
2023/08/11 11:32:46;;;;;;;6.28;3.53;;;27.70;99.90;;;;;;5059299;28;20557;-76
2023/08/11 11:35:13;;;;;;;10.25;3.67;;;27.60;99.90;;;;;;5045778;28;20049;-76
2023/08/11 11:37:46;;;;;;;8.93;3.92;;;27.70;99.90;;;;;;5060025;28;20060;-76
2023/08/11 11:40:13;;;;;;;5.75;3.47;;;27.90;99.90;;;;;;5039380;28;20060;-75
2023/08/11 11:42:39;;;;;;;6.55;3.42;;;28.00;99.90;;;;;;5042929;28;20048;-75
2023/08/11 11:45:06;;;;;;;10.05;4.10;;;27.80;99.90;;;;;;5046038;28;20052;-76
2023/08/11 11:47:33;;;;;;;6.25;3.67;;;27.70;99.90;;;;;;5034806;28;20040;-73
2023/08/11 11:50:07;;;;;;;5.60;3.00;;;27.70;99.90;;;;;;5042394;28;20570;-76
2023/08/11 11:52:33;;;;;;;5.07;3.40;;;27.60;99.90;;;;;;5053543;28;20076;-73
2023/08/11 11:55:01;;;;;;;6.35;3.42;;;27.70;99.90;;;;;;5064509;28;20048;-74
2023/08/11 11:57:26;;;;;;;6.65;3.38;;;27.60;99.90;;;;;;5040224;28;20080;-74
2023/08/11 11:59:56;;;;;;;6.28;3.03;;;27.60;99.90;;;;;;5059263;28;20044;-73
2023/08/11 12:02:23;;;;;;;4.80;2.80;;;27.60;99.90;;;;;;5057138;28;20044;-74
2023/08/11 12:04:50;;;;;;;5.22;2.53;;;27.80;99.90;;;;;;5059844;28;20043;-74
2023/08/11 12:07:32;;;;;;;4.00;2.90;;;28.00;99.90;;;;;;5054850;28;20139;-74
2023/08/11 12:10:00;;;;;;;10.05;3.55;;;28.10;99.90;;;;;;5061895;28;20060;-76
2023/08/11 12:12:29;;;;;;;6.50;4.20;;;28.20;99.90;;;;;;5068072;28;20438;-75
2023/08/11 12:15:05;;;;;;;7.47;3.40;;;28.30;99.90;;;;;;5059445;28;20086;-75
2023/08/11 12:17:35;;;;;;;7.30;3.38;;;28.50;99.90;;;;;;5061185;28;20123;-75
2023/08/11 12:20:04;;;;;;;6.03;4.07;;;28.50;99.90;;;;;;5062718;28;20152;-73
2023/08/11 12:22:29;;;;;;;7.97;4.13;;;28.40;99.90;;;;;;5057201;28;20381;-74
2023/08/11 12:24:55;;;;;;;6.97;3.67;;;28.30;99.90;;;;;;5066693;28;20044;-74
2023/08/11 12:27:21;;;;;;;6.40;3.60;;;28.40;99.90;;;;;;5064683;28;20040;-78
2023/08/11 12:29:47;;;;;;;6.07;3.85;;;28.50;99.90;;;;;;5034266;28;20082;-72
2023/08/11 12:32:16;;;;;;;6.40;3.95;;;28.40;99.90;;;;;;5066755;28;20029;-74
2023/08/11 12:34:42;;;;;;;6.70;3.58;;;28.60;99.90;;;;;;5030724;28;20455;-77
2023/08/11 12:37:07;;;;;;;10.63;3.58;;;28.60;99.90;;;;;;5047227;28;20044;-77